Time;durP1;ratioP1;P1;durP2;ratioP2;P2;SDS_P1;SDS_P2;PMS_P1;PMS_P2;Temp;Humidity;BMP_temperature;BMP_pressure;BME280_temperature;BME280_humidity;BME280_pressure;Samples;Min_cycle;Max_cycle;Signal;HPM_P1;HPM_P2
2021/10/03 00:00:19;;;;;;;7.93;5.82;;;;;;;10.40;100.00;95431.34;1036705;28;20057;-52
2021/10/03 00:00:49;;;;;;;11.13;6.35;;;;;;;10.38;100.00;95441.97;1033063;28;20006;-51
2021/10/03 00:01:20;;;;;;;9.02;5.88;;;;;;;10.38;100.00;95431.50;1033527;28;20022;-50
2021/10/03 00:01:51;;;;;;;8.13;6.18;;;;;;;10.38;100.00;95435.88;1041035;28;20048;-51
2021/10/03 00:02:22;;;;;;;9.07;6.40;;;;;;;10.37;100.00;95436.84;1032961;28;20022;-50
2021/10/03 00:02:52;;;;;;;9.02;5.90;;;;;;;10.35;100.00;95423.88;1028702;28;20101;-50
2021/10/03 00:03:24;;;;;;;9.40;6.22;;;;;;;10.36;100.00;95429.94;1029363;28;20042;-51
2021/10/03 00:03:55;;;;;;;8.25;5.80;;;;;;;10.35;100.00;95433.53;1029471;28;20417;-52
2021/10/03 00:04:28;;;;;;;7.82;6.07;;;;;;;10.35;100.00;95430.91;1029154;28;20023;-50
2021/10/03 00:04:59;;;;;;;8.52;6.25;;;;;;;10.31;100.00;95425.06;1032943;28;20074;-52
2021/10/03 00:05:29;;;;;;;8.38;5.88;;;;;;;10.33;100.00;95432.81;1033182;28;20085;-52
2021/10/03 00:06:02;;;;;;;8.90;6.50;;;;;;;10.31;100.00;95435.56;1032937;28;20027;-51
2021/10/03 00:06:32;;;;;;;8.40;6.07;;;;;;;10.29;100.00;95433.00;1028892;28;20370;-52
2021/10/03 00:07:03;;;;;;;7.10;5.70;;;;;;;10.29;100.00;95429.56;1029186;28;20318;-51
2021/10/03 00:07:34;;;;;;;8.68;6.03;;;;;;;10.26;100.00;95427.19;1032654;28;20030;-51
2021/10/03 00:08:07;;;;;;;10.50;7.13;;;;;;;10.28;100.00;95430.50;1033056;28;20514;-52
2021/10/03 00:08:38;;;;;;;8.88;6.22;;;;;;;10.29;100.00;95435.63;1028758;28;20018;-52
2021/10/03 00:09:08;;;;;;;8.25;6.03;;;;;;;10.28;100.00;95431.34;1033627;28;20261;-51
2021/10/03 00:09:39;;;;;;;9.32;6.25;;;;;;;10.28;100.00;95433.94;1041810;28;20717;-50
2021/10/03 00:10:10;;;;;;;7.25;5.70;;;;;;;10.33;100.00;95432.81;1040589;28;20507;-52
2021/10/03 00:10:42;;;;;;;10.57;6.38;;;;;;;10.33;100.00;95424.97;1037158;28;20165;-52
2021/10/03 00:11:13;;;;;;;8.38;5.43;;;;;;;10.30;100.00;95428.59;1041546;28;20021;-50
2021/10/03 00:11:45;;;;;;;8.23;5.90;;;;;;;10.27;100.00;95424.44;1041636;28;20537;-51
2021/10/03 00:12:19;;;;;;;8.98;6.82;;;;;;;10.25;100.00;95422.91;1041012;28;20260;-50
2021/10/03 00:12:49;;;;;;;9.00;6.35;;;;;;;10.25;100.00;95425.53;1036849;28;20315;-51
2021/10/03 00:13:22;;;;;;;8.30;5.95;;;;;;;10.22;100.00;95423.13;1029545;28;20290;-51
2021/10/03 00:13:52;;;;;;;9.38;6.18;;;;;;;10.23;100.00;95424.78;1029718;28;20062;-51
2021/10/03 00:14:24;;;;;;;8.68;6.30;;;;;;;10.23;100.00;95419.53;1033367;28;20419;-51
2021/10/03 00:14:54;;;;;;;9.27;6.72;;;;;;;10.24;100.00;95424.66;1033962;28;20561;-50
2021/10/03 00:15:25;;;;;;;8.70;6.38;;;;;;;10.23;100.00;95423.03;1041405;28;20291;-51
2021/10/03 00:15:55;;;;;;;9.93;6.43;;;;;;;10.23;100.00;95430.03;1037145;28;20080;-51
2021/10/03 00:16:26;;;;;;;7.10;5.65;;;;;;;10.22;100.00;95426.56;1029038;28;20077;-51
2021/10/03 00:16:57;;;;;;;8.57;6.43;;;;;;;10.23;100.00;95424.78;1028867;28;20019;-51
2021/10/03 00:17:28;;;;;;;8.98;6.20;;;;;;;10.22;100.00;95428.38;1029122;28;20031;-50
2021/10/03 00:17:59;;;;;;;8.30;6.32;;;;;;;10.19;100.00;95429.44;1028989;28;20046;-51
2021/10/03 00:18:30;;;;;;;9.02;6.82;;;;;;;10.19;100.00;95426.84;1029019;28;20262;-51
2021/10/03 00:19:02;;;;;;;10.82;7.00;;;;;;;10.20;100.00;95425.03;1028774;28;20428;-52
2021/10/03 00:19:33;;;;;;;7.43;5.88;;;;;;;10.17;100.00;95420.03;1029533;28;20034;-51
2021/10/03 00:20:05;;;;;;;8.65;6.05;;;;;;;10.18;100.00;95416.47;1033083;28;20257;-52
2021/10/03 00:20:36;;;;;;;9.43;6.18;;;;;;;10.17;100.00;95420.84;1033076;28;20016;-52
2021/10/03 00:21:10;;;;;;;7.20;5.60;;;;;;;10.17;100.00;95422.66;1029334;28;20277;-52
2021/10/03 00:21:41;;;;;;;8.27;6.05;;;;;;;10.19;100.00;95426.84;1039995;28;20272;-51
2021/10/03 00:22:12;;;;;;;8.10;6.05;;;;;;;10.19;100.00;95425.97;1033762;28;20261;-52
2021/10/03 00:22:43;;;;;;;7.35;5.95;;;;;;;10.19;100.00;95413.75;1032698;28;20026;-51
2021/10/03 00:23:14;;;;;;;8.70;6.43;;;;;;;10.22;100.00;95423.13;1024717;28;20059;-51
2021/10/03 00:23:44;;;;;;;9.98;6.75;;;;;;;10.18;100.00;95419.91;1029095;28;20372;-50
2021/10/03 00:24:15;;;;;;;8.70;6.75;;;;;;;10.15;100.00;95422.75;1033195;28;20153;-51
2021/10/03 00:24:46;;;;;;;9.88;6.60;;;;;;;10.11;100.00;95419.53;1032871;28;20070;-52
2021/10/03 00:25:17;;;;;;;7.93;6.30;;;;;;;10.08;100.00;95417.19;1032917;28;20022;-50
2021/10/03 00:25:49;;;;;;;9.55;7.45;;;;;;;10.07;100.00;95425.16;1028573;28;20535;-51
2021/10/03 00:26:22;;;;;;;10.70;7.82;;;;;;;10.05;100.00;95414.78;1033101;28;20262;-50
2021/10/03 00:26:53;;;;;;;10.55;7.07;;;;;;;10.04;100.00;95422.75;1032611;28;20699;-51
2021/10/03 00:27:24;;;;;;;10.57;6.80;;;;;;;10.01;100.00;95417.78;1025157;28;20251;-51
2021/10/03 00:27:55;;;;;;;9.23;7.20;;;;;;;10.05;100.00;95416.59;1024699;29;20521;-51
2021/10/03 00:28:26;;;;;;;11.38;7.43;;;;;;;10.02;100.00;95424.66;1028784;28;20279;-50
2021/10/03 00:28:57;;;;;;;10.98;6.95;;;;;;;10.03;100.00;95418.50;1032919;28;20029;-50
2021/10/03 00:29:27;;;;;;;9.77;7.53;;;;;;;10.03;100.00;95424.53;1033254;28;20057;-51
2021/10/03 00:29:58;;;;;;;11.25;6.90;;;;;;;10.00;100.00;95416.91;1037496;28;20488;-52
2021/10/03 00:30:29;;;;;;;9.30;6.85;;;;;;;9.98;100.00;95418.81;1037070;28;20137;-51
2021/10/03 00:30:59;;;;;;;9.07;7.25;;;;;;;9.97;100.00;95427.63;1037084;28;20113;-50
2021/10/03 00:31:30;;;;;;;10.50;7.32;;;;;;;9.95;100.00;95426.06;1032703;28;20022;-52
2021/10/03 00:32:03;;;;;;;10.30;7.43;;;;;;;9.93;100.00;95424.41;1028845;28;20011;-51
2021/10/03 00:32:34;;;;;;;9.45;7.55;;;;;;;9.95;100.00;95431.31;1029416;28;20680;-52
2021/10/03 00:33:04;;;;;;;10.13;7.35;;;;;;;9.95;100.00;95426.94;1029083;28;20046;-51
2021/10/03 00:33:35;;;;;;;9.55;7.30;;;;;;;9.95;100.00;95428.69;1028218;28;20046;-51
2021/10/03 00:34:06;;;;;;;8.85;7.00;;;;;;;9.97;100.00;95421.59;1028310;28;20023;-52
2021/10/03 00:34:38;;;;;;;8.38;6.85;;;;;;;9.98;100.00;95428.47;1032130;28;20705;-51
2021/10/03 00:35:10;;;;;;;9.95;6.60;;;;;;;9.97;100.00;95421.59;1032154;28;20560;-52
2021/10/03 00:35:41;;;;;;;8.27;6.40;;;;;;;9.94;100.00;95425.25;1032193;28;20279;-51
2021/10/03 00:36:12;;;;;;;8.88;7.10;;;;;;;10.01;100.00;95425.63;1034223;28;20642;-53
2021/10/03 00:36:43;;;;;;;10.27;7.57;;;;;;;10.02;100.00;95422.03;1032759;28;20269;-50
2021/10/03 00:37:13;;;;;;;9.98;6.80;;;;;;;10.01;100.00;95423.00;1024603;28;20023;-50
2021/10/03 00:37:44;;;;;;;8.45;6.85;;;;;;;10.01;100.00;95420.38;1028381;28;20497;-51
2021/10/03 00:38:15;;;;;;;8.10;6.25;;;;;;;9.99;100.00;95420.50;1029458;28;20102;-52
2021/10/03 00:38:45;;;;;;;10.30;6.93;;;;;;;9.99;100.00;95422.28;1036946;28;20018;-51
2021/10/03 00:39:16;;;;;;;10.43;7.00;;;;;;;9.98;100.00;95418.00;1040861;28;20120;-51
2021/10/03 00:39:46;;;;;;;10.45;7.00;;;;;;;9.97;100.00;95421.59;1036737;28;20029;-51
2021/10/03 00:40:17;;;;;;;9.02;6.97;;;;;;;9.96;100.00;95415.50;1028693;28;20027;-51
2021/10/03 00:40:48;;;;;;;9.63;6.97;;;;;;;9.95;100.00;95415.59;1024613;29;20030;-51
2021/10/03 00:41:19;;;;;;;10.40;7.32;;;;;;;9.94;100.00;95412.16;1024750;29;20070;-52
2021/10/03 00:41:49;;;;;;;9.32;7.20;;;;;;;9.95;100.00;95418.22;1028588;28;20023;-52
2021/10/03 00:42:20;;;;;;;9.50;7.30;;;;;;;9.93;100.00;95415.75;1029119;28;20194;-51
2021/10/03 00:42:51;;;;;;;16.85;9.20;;;;;;;9.92;100.00;95420.13;1032815;28;20046;-50
2021/10/03 00:43:21;;;;;;;9.77;7.30;;;;;;;9.91;100.00;95415.03;1032779;28;20056;-51
2021/10/03 00:43:52;;;;;;;10.40;7.65;;;;;;;9.91;100.00;95410.63;1032625;28;20030;-51
2021/10/03 00:44:23;;;;;;;12.95;7.43;;;;;;;9.89;100.00;95417.75;1032807;28;20105;-50
2021/10/03 00:44:54;;;;;;;10.27;7.10;;;;;;;9.88;100.00;95417.88;1032964;28;20049;-52
2021/10/03 00:45:24;;;;;;;8.98;6.88;;;;;;;9.87;100.00;95410.97;1032875;28;20014;-50
2021/10/03 00:45:55;;;;;;;11.35;7.53;;;;;;;9.86;100.00;95417.97;1037011;28;20097;-51
2021/10/03 00:46:26;;;;;;;11.00;7.65;;;;;;;9.87;100.00;95414.44;1036653;28;20014;-51
2021/10/03 00:46:58;;;;;;;12.15;6.90;;;;;;;9.85;100.00;95416.34;1036897;28;20503;-52
2021/10/03 00:47:28;;;;;;;9.77;7.63;;;;;;;9.84;100.00;95414.66;1032668;28;20040;-50
2021/10/03 00:47:59;;;;;;;10.52;8.00;;;;;;;9.82;100.00;95416.56;1024572;28;20665;-52
2021/10/03 00:48:30;;;;;;;8.93;7.07;;;;;;;9.82;100.00;95410.50;1028615;28;20014;-51
2021/10/03 00:49:00;;;;;;;9.15;7.40;;;;;;;9.80;100.00;95417.59;1028683;28;20539;-51
2021/10/03 00:49:34;;;;;;;11.05;8.15;;;;;;;9.80;100.00;95418.47;1028460;28;20493;-52
2021/10/03 00:50:06;;;;;;;11.18;8.50;;;;;;;9.79;100.00;95418.56;1028469;28;20123;-51
2021/10/03 00:50:39;;;;;;;12.10;8.48;;;;;;;9.77;100.00;95423.09;1029320;28;20082;-51
2021/10/03 00:51:10;;;;;;;10.10;7.57;;;;;;;9.76;100.00;95424.88;1029758;28;20034;-51
2021/10/03 00:51:41;;;;;;;10.27;8.02;;;;;;;9.74;100.00;95418.91;1034286;28;20069;-51
2021/10/03 00:52:11;;;;;;;11.13;8.27;;;;;;;9.73;100.00;95417.25;1032821;28;20418;-50
2021/10/03 00:52:43;;;;;;;11.95;8.75;;;;;;;9.59;100.00;95402.59;1032586;28;20022;-51
2021/10/03 00:53:14;;;;;;;11.13;8.82;;;;;;;9.68;100.00;95419.38;1028774;28;20113;-51
2021/10/03 00:53:44;;;;;;;12.82;9.10;;;;;;;9.67;100.00;95415.09;1033614;28;20018;-51
2021/10/03 00:54:15;;;;;;;12.27;9.27;;;;;;;9.66;100.00;95419.47;1037050;28;20102;-51
2021/10/03 00:54:46;;;;;;;11.80;8.40;;;;;;;9.65;100.00;95420.44;1037095;28;20025;-51
2021/10/03 00:55:17;;;;;;;11.63;9.15;;;;;;;9.65;100.00;95417.84;1036592;28;20021;-51
2021/10/03 00:55:48;;;;;;;12.57;9.55;;;;;;;9.66;100.00;95416.88;1032897;28;20579;-50
2021/10/03 00:56:18;;;;;;;14.35;9.13;;;;;;;9.64;100.00;95413.53;1028809;28;20026;-51
2021/10/03 00:56:49;;;;;;;13.38;9.73;;;;;;;9.65;100.00;95423.06;1028638;28;20184;-52
2021/10/03 00:57:19;;;;;;;11.50;8.77;;;;;;;9.63;100.00;95419.72;1036528;28;20112;-50
2021/10/03 00:57:51;;;;;;;12.23;8.57;;;;;;;9.64;100.00;95423.16;1032655;28;20038;-52
2021/10/03 00:58:22;;;;;;;12.48;9.90;;;;;;;9.61;100.00;95415.53;1032605;28;20026;-51
2021/10/03 00:58:53;;;;;;;12.18;8.85;;;;;;;9.60;100.00;95416.50;1029118;28;20031;-51
2021/10/03 00:59:23;;;;;;;12.85;9.43;;;;;;;9.60;100.00;95398.19;1028283;28;20575;-51
2021/10/03 00:59:54;;;;;;;14.32;9.05;;;;;;;9.60;100.00;95398.19;1028568;28;20455;-51
2021/10/03 01:00:26;;;;;;;16.85;10.70;;;;;;;9.61;100.00;95397.25;1036548;28;20028;-51
2021/10/03 01:00:57;;;;;;;12.13;9.18;;;;;;;9.59;100.00;95402.59;1032579;28;20036;-51
2021/10/03 01:01:28;;;;;;;16.48;9.35;;;;;;;9.62;100.00;95398.91;1033577;28;20520;-52
2021/10/03 01:01:59;;;;;;;11.38;8.10;;;;;;;9.59;100.00;95397.38;1033121;28;20015;-50
2021/10/03 01:02:29;;;;;;;14.45;9.25;;;;;;;9.64;100.00;95392.59;1028927;28;20106;-53
2021/10/03 01:03:00;;;;;;;12.30;7.97;;;;;;;9.64;100.00;95391.78;1032230;28;20022;-50
2021/10/03 01:03:31;;;;;;;13.20;8.23;;;;;;;9.63;100.00;95404.03;1028616;28;20102;-51
2021/10/03 01:04:02;;;;;;;13.35;8.20;;;;;;;9.62;100.00;95402.34;1032690;28;20089;-53
2021/10/03 01:04:32;;;;;;;11.40;8.05;;;;;;;9.62;100.00;95397.13;1032644;28;20026;-51
2021/10/03 01:05:07;;;;;;;10.25;7.15;;;;;;;9.63;100.00;95400.56;1032579;28;20023;-51
2021/10/03 01:05:37;;;;;;;11.40;7.78;;;;;;;9.64;100.00;95399.63;1037962;28;20029;-51
2021/10/03 01:06:08;;;;;;;9.95;7.00;;;;;;;9.65;100.00;95398.69;1040446;28;20430;-52
2021/10/03 01:06:42;;;;;;;9.68;7.63;;;;;;;9.64;100.00;95397.84;1037097;28;20024;-51
2021/10/03 01:07:12;;;;;;;10.38;6.70;;;;;;;9.63;100.00;95401.41;1036555;28;20018;-52
2021/10/03 01:07:43;;;;;;;10.98;6.93;;;;;;;9.64;100.00;95397.84;1032919;28;20018;-51
2021/10/03 01:08:14;;;;;;;9.80;7.53;;;;;;;9.64;100.00;95397.00;1033249;28;20501;-52
2021/10/03 01:08:45;;;;;;;9.52;7.20;;;;;;;9.61;100.00;95394.63;1032601;28;20034;-51
2021/10/03 01:09:16;;;;;;;10.45;7.38;;;;;;;9.60;100.00;95393.78;1036624;28;20014;-52
2021/10/03 01:09:46;;;;;;;9.77;7.50;;;;;;;9.58;100.00;95395.69;1032701;28;20516;-51
2021/10/03 01:10:22;;;;;;;9.95;7.22;;;;;;;9.57;100.00;95388.78;1028508;28;20023;-51
2021/10/03 01:10:54;;;;;;;10.30;7.82;;;;;;;9.54;100.00;95389.03;1028241;28;20073;-51
2021/10/03 01:11:25;;;;;;;8.77;6.90;;;;;;;9.54;100.00;95389.03;1032585;28;20054;-52
2021/10/03 01:11:55;;;;;;;11.00;8.07;;;;;;;9.51;100.00;95392.69;1032766;28;20022;-52
2021/10/03 01:12:27;;;;;;;9.45;7.78;;;;;;;9.51;100.00;95387.47;1028932;28;20117;-52
2021/10/03 01:13:04;;;;;;;8.73;7.22;;;;;;;9.52;100.00;95391.75;1036631;28;20025;-52
2021/10/03 01:13:35;;;;;;;10.40;7.30;;;;;;;9.51;100.00;95384.03;1032490;28;20121;-51
2021/10/03 01:14:05;;;;;;;8.23;6.63;;;;;;;9.51;100.00;95382.22;1024459;29;20660;-51
2021/10/03 01:14:36;;;;;;;15.32;7.68;;;;;;;9.51;100.00;95392.69;1032627;28;20090;-52
2021/10/03 01:15:08;;;;;;;12.15;7.13;;;;;;;9.51;100.00;95382.22;1032563;28;20029;-51
2021/10/03 01:15:43;;;;;;;8.80;6.80;;;;;;;9.54;100.00;95383.81;1032431;28;20495;-50
2021/10/03 01:16:14;;;;;;;9.68;7.15;;;;;;;9.55;100.00;95388.06;1033311;28;20034;-52
2021/10/03 01:16:46;;;;;;;8.48;6.47;;;;;;;9.51;100.00;95386.63;1029351;28;20085;-51
2021/10/03 01:17:16;;;;;;;11.25;7.55;;;;;;;9.46;100.00;95381.78;1034406;28;20049;-52
2021/10/03 01:17:47;;;;;;;11.65;7.55;;;;;;;9.45;100.00;95377.47;1036421;28;20797;-51
2021/10/03 01:18:18;;;;;;;10.38;7.30;;;;;;;9.44;100.00;95381.06;1037130;28;20077;-53
2021/10/03 01:18:50;;;;;;;9.10;7.30;;;;;;;9.42;100.00;95382.09;1032319;28;20025;-51
2021/10/03 01:19:21;;;;;;;9.00;7.05;;;;;;;9.42;100.00;95382.94;1032273;28;20109;-52
2021/10/03 01:19:52;;;;;;;11.20;7.07;;;;;;;9.42;100.00;95382.94;1036652;28;20316;-50
2021/10/03 01:20:23;;;;;;;9.25;7.10;;;;;;;9.40;100.00;95381.38;1040683;28;20028;-51
2021/10/03 01:20:54;;;;;;;10.15;7.32;;;;;;;9.40;100.00;95382.22;1040642;28;20268;-52
2021/10/03 01:21:25;;;;;;;9.80;6.80;;;;;;;9.41;100.00;95383.06;1036570;28;20515;-52
2021/10/03 01:21:56;;;;;;;10.15;7.57;;;;;;;9.39;100.00;95390.19;1028846;28;20039;-51
2021/10/03 01:22:26;;;;;;;11.07;7.38;;;;;;;9.37;100.00;95384.25;1024765;28;20271;-53
2021/10/03 01:23:03;;;;;;;10.07;7.38;;;;;;;9.33;100.00;95381.84;1032159;28;20030;-50
2021/10/03 01:23:34;;;;;;;11.38;7.53;;;;;;;9.33;100.00;95378.41;1028409;28;20019;-51
2021/10/03 01:24:05;;;;;;;11.48;8.48;;;;;;;9.33;100.00;95383.63;1030670;28;20261;-51
2021/10/03 01:24:36;;;;;;;11.57;7.80;;;;;;;9.30;100.00;95389.09;1030375;28;20847;-51
2021/10/03 01:25:07;;;;;;;11.38;8.20;;;;;;;9.27;100.00;95379.69;1032578;28;20048;-52
2021/10/03 01:25:40;;;;;;;11.30;7.60;;;;;;;9.29;100.00;95384.78;1028259;28;20527;-51
2021/10/03 01:26:11;;;;;;;11.98;8.40;;;;;;;9.27;100.00;95374.47;1024350;29;20270;-51
2021/10/03 01:26:42;;;;;;;12.50;8.40;;;;;;;9.28;100.00;95378.72;1024389;29;20883;-52
2021/10/03 01:27:12;;;;;;;11.95;8.38;;;;;;;9.27;100.00;95378.84;1028274;28;20117;-53
2021/10/03 01:27:43;;;;;;;10.57;7.60;;;;;;;9.24;100.00;95371.25;1028406;28;20042;-52
2021/10/03 01:28:15;;;;;;;10.82;7.28;;;;;;;9.25;100.00;95375.50;1028778;28;20499;-51
2021/10/03 01:28:45;;;;;;;10.23;7.78;;;;;;;9.25;100.00;95372.91;1037417;28;20030;-52
2021/10/03 01:29:16;;;;;;;13.55;8.13;;;;;;;9.26;100.00;95377.19;1040462;28;20268;-51
2021/10/03 01:29:49;;;;;;;9.45;7.30;;;;;;;9.28;100.00;95377.91;1032434;28;20104;-52
2021/10/03 01:30:20;;;;;;;12.10;7.05;;;;;;;9.27;100.00;95373.63;1024498;28;20027;-51
2021/10/03 01:30:52;;;;;;;10.95;7.65;;;;;;;9.27;100.00;95373.63;1032637;28;20304;-51
2021/10/03 01:31:24;;;;;;;12.02;8.23;;;;;;;9.28;100.00;95372.69;1036904;28;20045;-52
2021/10/03 01:31:55;;;;;;;9.60;7.75;;;;;;;9.28;100.00;95372.69;1035950;28;20311;-50
2021/10/03 01:32:26;;;;;;;15.57;7.93;;;;;;;9.25;100.00;95371.13;1024885;28;20325;-51
2021/10/03 01:32:57;;;;;;;9.75;7.03;;;;;;;9.24;100.00;95369.47;1032319;28;20026;-51
2021/10/03 01:33:28;;;;;;;10.20;7.75;;;;;;;9.24;100.00;95373.84;1032338;28;20034;-51
2021/10/03 01:33:58;;;;;;;11.57;8.10;;;;;;;9.24;100.00;95372.06;1040597;28;20030;-51
2021/10/03 01:34:29;;;;;;;12.18;6.85;;;;;;;9.23;100.00;95369.56;1036445;28;20746;-53
2021/10/03 01:35:00;;;;;;;11.77;7.13;;;;;;;9.22;100.00;95366.13;1036361;28;20503;-51
2021/10/03 01:35:30;;;;;;;9.50;7.40;;;;;;;9.23;100.00;95367.78;1032186;28;20027;-52
2021/10/03 01:36:05;;;;;;;9.20;7.68;;;;;;;9.22;100.00;95363.50;1028448;28;20126;-53
2021/10/03 01:36:36;;;;;;;11.73;7.75;;;;;;;9.22;100.00;95368.75;1028296;28;20540;-52
2021/10/03 01:37:07;;;;;;;9.07;7.20;;;;;;;9.23;100.00;95372.19;1024284;29;20362;-51
2021/10/03 01:37:38;;;;;;;12.15;7.95;;;;;;;9.20;100.00;95368.03;1028261;28;20061;-51
2021/10/03 01:38:11;;;;;;;9.88;7.15;;;;;;;9.21;100.00;95374.06;1028068;28;20022;-52
2021/10/03 01:38:42;;;;;;;9.95;7.68;;;;;;;9.21;100.00;95379.31;1028313;28;20278;-51
2021/10/03 01:39:13;;;;;;;10.52;8.25;;;;;;;9.22;100.00;95365.31;1032285;28;20270;-51
2021/10/03 01:39:43;;;;;;;9.80;7.03;;;;;;;9.18;100.00;95369.06;1036275;28;20046;-52
2021/10/03 01:40:14;;;;;;;9.75;7.57;;;;;;;9.21;100.00;95364.44;1028163;28;20058;-52
2021/10/03 01:40:46;;;;;;;9.57;7.25;;;;;;;9.24;100.00;95374.69;1028505;28;20031;-51
2021/10/03 01:41:17;;;;;;;8.57;6.97;;;;;;;9.12;100.00;95352.91;1032888;28;20018;-50
2021/10/03 01:41:48;;;;;;;8.70;6.75;;;;;;;9.24;100.00;95363.41;1029081;28;20660;-51
2021/10/03 01:42:18;;;;;;;10.13;7.70;;;;;;;9.20;100.00;95367.19;1028734;28;20286;-52
2021/10/03 01:42:50;;;;;;;10.57;7.13;;;;;;;9.22;100.00;95370.53;1028245;28;20110;-51
2021/10/03 01:43:20;;;;;;;10.70;7.30;;;;;;;9.24;100.00;95372.06;1028277;28;20026;-51
2021/10/03 01:43:51;;;;;;;10.65;7.00;;;;;;;9.20;100.00;95362.78;1024689;28;20305;-51
2021/10/03 01:44:22;;;;;;;10.60;8.25;;;;;;;9.19;100.00;95371.56;1032535;28;20022;-52
2021/10/03 01:44:53;;;;;;;9.52;7.05;;;;;;;9.19;100.00;95363.72;1032169;28;20026;-51
2021/10/03 01:45:23;;;;;;;9.85;7.47;;;;;;;9.22;100.00;95365.31;1036202;28;20014;-52
2021/10/03 01:45:54;;;;;;;9.73;6.65;;;;;;;9.24;100.00;95356.38;1032464;28;20021;-51
2021/10/03 01:46:25;;;;;;;9.35;6.95;;;;;;;9.26;100.00;95364.13;1036391;28;20028;-51
2021/10/03 01:46:55;;;;;;;9.00;7.20;;;;;;;9.24;100.00;95368.63;1036473;28;20025;-51
2021/10/03 01:47:26;;;;;;;9.30;7.13;;;;;;;9.25;100.00;95362.44;1036221;28;20041;-52
2021/10/03 01:48:08;;;;;;;10.43;6.85;;;;;;;9.24;100.00;95364.22;1028246;28;20030;-51
2021/10/03 01:48:39;;;;;;;10.40;8.13;;;;;;;9.22;100.00;95367.91;1030012;28;20733;-51
2021/10/03 01:49:10;;;;;;;10.60;7.25;;;;;;;9.20;100.00;95364.59;1034084;28;20265;-52
2021/10/03 01:49:41;;;;;;;11.13;7.68;;;;;;;9.17;100.00;95364.81;1034083;28;20022;-50
2021/10/03 01:50:12;;;;;;;9.48;7.05;;;;;;;9.15;100.00;95362.28;1032357;28;20029;-51
2021/10/03 01:50:48;;;;;;;10.32;7.18;;;;;;;9.13;100.00;95364.19;1032317;28;20022;-51
2021/10/03 01:51:18;;;;;;;12.38;7.45;;;;;;;9.15;100.00;95362.28;1033301;28;20033;-52
2021/10/03 01:51:49;;;;;;;10.40;8.30;;;;;;;9.14;100.00;95360.63;1032178;28;20675;-52
2021/10/03 01:52:20;;;;;;;10.63;7.25;;;;;;;9.13;100.00;95365.03;1029230;28;20054;-51
2021/10/03 01:52:50;;;;;;;9.73;7.75;;;;;;;9.12;100.00;95359.91;1028330;28;20098;-49
2021/10/03 01:53:23;;;;;;;11.35;7.57;;;;;;;9.12;100.00;95362.50;1024251;28;20055;-51
2021/10/03 01:53:58;;;;;;;9.80;7.07;;;;;;;9.11;100.00;95363.47;1024207;29;20042;-52
2021/10/03 01:54:29;;;;;;;11.52;8.32;;;;;;;9.10;100.00;95356.56;1024723;29;20851;-52
2021/10/03 01:55:01;;;;;;;13.77;7.97;;;;;;;9.13;100.00;95361.59;1026319;28;20259;-51
2021/10/03 01:55:32;;;;;;;10.45;7.97;;;;;;;9.12;100.00;95360.75;1029306;28;20480;-50
2021/10/03 01:56:04;;;;;;;10.02;7.65;;;;;;;9.10;100.00;95357.44;1032165;28;20265;-50
2021/10/03 01:56:36;;;;;;;11.38;7.93;;;;;;;9.08;100.00;95359.28;1035841;28;20022;-51
2021/10/03 01:57:07;;;;;;;14.32;7.47;;;;;;;9.06;100.00;95355.13;1031723;28;20269;-50
2021/10/03 01:57:37;;;;;;;10.07;7.75;;;;;;;9.05;100.00;95354.31;1028428;28;20280;-51
2021/10/03 01:58:08;;;;;;;11.63;7.53;;;;;;;9.05;100.00;95351.69;1027892;28;20033;-51
2021/10/03 01:58:46;;;;;;;9.68;7.47;;;;;;;9.05;100.00;95353.50;1027909;28;20119;-50
2021/10/03 01:59:17;;;;;;;9.07;6.90;;;;;;;9.08;100.00;95350.63;1024091;29;20362;-50
2021/10/03 01:59:48;;;;;;;8.73;7.22;;;;;;;9.08;100.00;95358.47;1030563;28;20280;-50
2021/10/03 02:00:18;;;;;;;8.40;6.55;;;;;;;9.09;100.00;95349.69;1028203;28;20416;-51
2021/10/03 02:00:51;;;;;;;10.43;7.47;;;;;;;9.09;100.00;95345.28;1024382;29;20019;-51
2021/10/03 02:01:28;;;;;;;9.40;7.05;;;;;;;9.10;100.00;95354.81;1024144;29;20023;-51
2021/10/03 02:02:00;;;;;;;10.80;7.50;;;;;;;9.10;100.00;95352.19;1028156;28;20317;-51
2021/10/03 02:02:32;;;;;;;10.75;6.65;;;;;;;9.12;100.00;95347.69;1028439;28;20269;-51
2021/10/03 02:03:03;;;;;;;10.75;7.38;;;;;;;9.11;100.00;95353.03;1027958;28;20277;-52
2021/10/03 02:03:34;;;;;;;11.45;7.70;;;;;;;9.10;100.00;95343.50;1030153;28;20507;-51
2021/10/03 02:04:05;;;;;;;9.57;7.93;;;;;;;9.12;100.00;95346.84;1037254;28;20280;-51
2021/10/03 02:04:36;;;;;;;9.65;7.15;;;;;;;9.10;100.00;95341.75;1040961;28;20040;-52
2021/10/03 02:05:07;;;;;;;9.07;6.82;;;;;;;9.13;100.00;95351.13;1036288;28;20732;-51
2021/10/03 02:05:41;;;;;;;8.57;6.57;;;;;;;9.15;100.00;95349.22;1032390;28;20101;-51
2021/10/03 02:06:11;;;;;;;10.15;6.65;;;;;;;9.16;100.00;95345.69;1025092;28;20270;-51
2021/10/03 02:06:43;;;;;;;10.70;6.70;;;;;;;9.14;100.00;95342.31;1025791;28;20353;-51
2021/10/03 02:07:14;;;;;;;8.95;7.00;;;;;;;9.14;100.00;95343.19;1028915;28;20571;-50
2021/10/03 02:07:45;;;;;;;9.77;7.05;;;;;;;9.13;100.00;95343.28;1024716;28;20382;-51
2021/10/03 02:08:16;;;;;;;9.00;7.03;;;;;;;9.12;100.00;95342.47;1028149;28;20448;-50
2021/10/03 02:08:51;;;;;;;8.88;6.20;;;;;;;9.13;100.00;95338.06;1028141;28;20026;-52
2021/10/03 02:09:24;;;;;;;9.88;7.03;;;;;;;9.09;100.00;95337.44;1029420;28;20106;-50
2021/10/03 02:09:55;;;;;;;9.82;6.93;;;;;;;9.11;100.00;95337.34;1025190;28;20274;-50
2021/10/03 02:10:26;;;;;;;10.30;7.78;;;;;;;9.12;100.00;95336.38;1028031;28;20362;-51
2021/10/03 02:10:57;;;;;;;12.25;7.47;;;;;;;9.09;100.00;95337.44;1031922;28;20763;-51
2021/10/03 02:11:28;;;;;;;13.23;8.52;;;;;;;9.07;100.00;95341.97;1035470;28;20025;-52
2021/10/03 02:11:59;;;;;;;11.02;8.00;;;;;;;9.06;100.00;95340.28;1031906;28;20015;-52
2021/10/03 02:12:30;;;;;;;11.40;8.02;;;;;;;9.07;100.00;95339.34;1032155;28;20022;-52
2021/10/03 02:13:00;;;;;;;12.35;8.18;;;;;;;9.08;100.00;95337.56;1031754;28;20655;-52
2021/10/03 02:13:31;;;;;;;10.63;7.53;;;;;;;9.06;100.00;95342.06;1024063;28;20043;-52
2021/10/03 02:14:02;;;;;;;11.45;8.00;;;;;;;9.01;100.00;95341.56;1031863;28;20153;-52
2021/10/03 02:14:34;;;;;;;9.80;7.53;;;;;;;8.98;100.00;95341.81;1032525;28;20340;-51
2021/10/03 02:15:06;;;;;;;9.45;7.72;;;;;;;8.94;100.00;95336.81;1029344;28;20640;-51
2021/10/03 02:15:41;;;;;;;9.25;6.93;;;;;;;8.94;100.00;95338.59;1031955;28;20261;-51
2021/10/03 02:16:12;;;;;;;8.55;7.15;;;;;;;8.94;100.00;95336.81;1032070;28;20636;-51
2021/10/03 02:16:42;;;;;;;11.30;7.10;;;;;;;8.98;100.00;95341.81;1036310;28;20665;-51
2021/10/03 02:17:13;;;;;;;10.02;7.60;;;;;;;8.99;100.00;95344.31;1032112;28;20277;-51
2021/10/03 02:17:44;;;;;;;9.82;7.40;;;;;;;8.98;100.00;95341.81;1032006;28;20034;-51
2021/10/03 02:18:16;;;;;;;11.68;7.57;;;;;;;8.98;100.00;95341.81;1032195;28;20113;-50
2021/10/03 02:18:47;;;;;;;15.18;7.30;;;;;;;8.98;100.00;95347.03;1028397;28;20027;-51
2021/10/03 02:19:17;;;;;;;10.63;7.35;;;;;;;8.94;100.00;95339.41;1028658;28;20629;-51
2021/10/03 02:19:48;;;;;;;10.57;7.75;;;;;;;8.93;100.00;95344.75;1032294;28;20266;-51
2021/10/03 02:20:19;;;;;;;11.88;7.55;;;;;;;8.90;100.00;95339.78;1036422;28;20052;-51
2021/10/03 02:20:51;;;;;;;10.02;7.40;;;;;;;8.91;100.00;95342.25;1032110;28;20022;-51
2021/10/03 02:21:22;;;;;;;10.35;7.82;;;;;;;8.89;100.00;95338.91;1032317;28;20096;-51
2021/10/03 02:21:53;;;;;;;10.05;7.22;;;;;;;8.90;100.00;95334.53;1032062;28;20348;-51
2021/10/03 02:22:25;;;;;;;11.23;7.72;;;;;;;8.89;100.00;95344.13;1028913;28;20023;-52
2021/10/03 02:22:55;;;;;;;11.15;8.05;;;;;;;8.85;100.00;95337.47;1032503;28;20801;-52
2021/10/03 02:23:26;;;;;;;10.88;8.07;;;;;;;8.85;100.00;95347.09;1028782;28;20262;-50
2021/10/03 02:23:57;;;;;;;10.25;8.02;;;;;;;8.85;100.00;95339.25;1036573;28;20022;-51
2021/10/03 02:24:28;;;;;;;10.13;8.00;;;;;;;8.86;100.00;95340.91;1032124;28;20481;-51
2021/10/03 02:24:58;;;;;;;10.40;7.70;;;;;;;8.86;100.00;95341.78;1032417;28;20018;-52
2021/10/03 02:25:29;;;;;;;10.43;8.23;;;;;;;8.87;100.00;95337.38;1032302;28;20053;-51
2021/10/03 02:26:00;;;;;;;11.38;7.57;;;;;;;8.88;100.00;95339.06;1023872;28;20034;-51